createdAt,value
2022-09-09T00:00:41.490Z,0.75
2022-09-09T00:01:45.485Z,1.50
2022-09-09T00:02:49.629Z,1.25
2022-09-09T00:03:53.787Z,1.50
2022-09-09T00:04:57.898Z,1.75
2022-09-09T00:06:02.007Z,1.00
2022-09-09T00:07:06.112Z,1.50
2022-09-09T00:08:10.320Z,2.00
2022-09-09T00:09:14.720Z,0.75
2022-09-09T00:10:18.926Z,2.00
2022-09-09T00:11:24.117Z,2.00
2022-09-09T00:12:28.569Z,1.75
2022-09-09T00:13:32.879Z,1.75
2022-09-09T00:14:37.050Z,1.00
2022-09-09T00:15:41.097Z,0.75
2022-09-09T00:16:45.100Z,1.50
2022-09-09T00:17:49.084Z,1.50
2022-09-09T00:18:53.083Z,2.00
2022-09-09T00:19:57.187Z,2.50
2022-09-09T00:21:01.302Z,2.00
2022-09-09T00:22:05.599Z,1.50
2022-09-09T00:23:09.363Z,1.00
2022-09-09T00:24:13.630Z,1.00
2022-09-09T00:25:17.715Z,2.00
2022-09-09T00:26:21.604Z,1.00
2022-09-09T00:27:25.506Z,1.00
2022-09-09T00:28:29.568Z,2.00
2022-09-09T00:29:33.708Z,1.75
2022-09-09T00:30:37.912Z,1.00
2022-09-09T00:31:41.821Z,1.50
2022-09-09T00:32:45.930Z,2.00
2022-09-09T00:33:50.021Z,1.50
2022-09-09T00:34:53.892Z,1.50
2022-09-09T00:35:57.966Z,1.00
2022-09-09T00:37:01.820Z,1.00
2022-09-09T00:38:06.128Z,1.50
2022-09-09T00:39:10.655Z,1.00
2022-09-09T00:40:14.983Z,1.50
2022-09-09T00:41:19.262Z,1.50
2022-09-09T00:42:23.569Z,1.00
2022-09-09T00:43:27.768Z,1.75
2022-09-09T00:44:31.978Z,1.50
2022-09-09T00:45:35.978Z,1.50
2022-09-09T00:46:40.240Z,1.00
2022-09-09T00:47:44.185Z,1.00
2022-09-09T00:48:48.188Z,1.00
2022-09-09T00:49:52.171Z,1.00
2022-09-09T00:50:56.399Z,1.00
2022-09-09T00:52:00.710Z,1.00
2022-09-09T00:53:04.906Z,1.50
2022-09-09T00:54:08.904Z,2.00
2022-09-09T00:55:13.010Z,2.00
2022-09-09T00:56:17.318Z,1.50
2022-09-09T00:57:21.528Z,2.50
2022-09-09T00:58:25.628Z,2.00
2022-09-09T00:59:29.843Z,1.75
2022-09-09T01:00:34.139Z,2.50
2022-09-09T01:01:38.295Z,2.50
2022-09-09T01:02:42.406Z,3.00
2022-09-09T01:03:46.466Z,2.00
2022-09-09T01:04:50.354Z,1.50
2022-09-09T01:05:54.350Z,2.00
2022-09-09T01:06:58.457Z,1.00
2022-09-09T01:08:02.665Z,1.00
2022-09-09T01:09:06.860Z,2.00
2022-09-09T01:10:10.968Z,1.50
2022-09-09T01:11:15.176Z,1.50
2022-09-09T01:12:19.490Z,1.50
2022-09-09T01:13:23.801Z,2.00
2022-09-09T01:14:27.996Z,1.25
2022-09-09T01:15:32.322Z,1.50
2022-09-09T01:16:36.226Z,2.00
2022-09-09T01:17:40.101Z,1.50
2022-09-09T01:18:44.004Z,1.00
2022-09-09T01:19:48.107Z,1.25
2022-09-09T01:20:52.110Z,1.00
2022-09-09T01:21:56.004Z,0.50
2022-09-09T01:23:00.004Z,1.00
2022-09-09T01:24:04.108Z,1.00
2022-09-09T01:25:08.316Z,2.00
2022-09-09T01:26:12.323Z,2.00
2022-09-09T01:27:16.213Z,2.00
2022-09-09T01:28:20.213Z,2.00
2022-09-09T01:29:24.123Z,2.00
2022-09-09T01:30:28.160Z,1.00
2022-09-09T01:31:32.118Z,1.00
2022-09-09T01:32:36.217Z,1.00
2022-09-09T01:33:40.076Z,0.50
2022-09-09T01:34:44.528Z,1.25
2022-09-09T01:35:48.750Z,1.25
2022-09-09T01:36:52.862Z,1.25
2022-09-09T01:37:56.947Z,1.00
2022-09-09T01:39:01.148Z,1.00
2022-09-09T01:40:05.405Z,0.75
2022-09-09T01:41:09.565Z,1.00
2022-09-09T01:42:13.892Z,1.00
2022-09-09T01:43:18.108Z,1.00
2022-09-09T01:44:22.178Z,1.00
2022-09-09T01:45:26.280Z,1.00
2022-09-09T01:46:30.441Z,1.00
2022-09-09T01:47:34.441Z,1.00
2022-09-09T01:48:38.897Z,1.00
2022-09-09T01:49:42.897Z,0.50
2022-09-09T01:50:46.822Z,0.00
2022-09-09T01:51:50.809Z,0.67
2022-09-09T01:52:54.807Z,1.00
2022-09-09T01:53:59.010Z,0.75
2022-09-09T01:55:03.143Z,0.50
2022-09-09T01:56:07.168Z,0.00
2022-09-09T01:57:11.210Z,1.00
2022-09-09T01:58:15.626Z,1.25
2022-09-09T01:59:19.941Z,1.00
2022-09-09T02:00:24.057Z,1.25
2022-09-09T02:01:28.438Z,0.50
2022-09-09T02:02:32.793Z,0.50
2022-09-09T02:03:36.758Z,0.00
2022-09-09T02:04:41.474Z,1.00
2022-09-09T02:05:45.679Z,1.00
2022-09-09T02:06:49.687Z,0.50
2022-09-09T02:07:53.884Z,0.75
2022-09-09T02:08:58.300Z,0.50
2022-09-09T02:10:02.607Z,1.00
2022-09-09T02:11:06.808Z,1.00
2022-09-09T02:12:10.921Z,1.00
2022-09-09T02:13:15.424Z,1.00
2022-09-09T02:14:19.839Z,0.75
2022-09-09T02:15:24.005Z,0.75
2022-09-09T02:16:27.904Z,1.00
2022-09-09T02:17:31.842Z,0.50
2022-09-09T02:18:36.102Z,0.50
2022-09-09T02:19:39.947Z,0.50
2022-09-09T02:20:44.155Z,0.00
2022-09-09T02:21:48.358Z,0.50
2022-09-09T02:22:52.409Z,1.00
2022-09-09T02:23:56.371Z,0.50
2022-09-09T02:25:00.276Z,0.00
2022-09-09T02:26:04.157Z,0.00
2022-09-09T02:27:08.160Z,0.00
2022-09-09T02:28:12.368Z,0.00
2022-09-09T02:29:16.586Z,1.00
2022-09-09T02:30:21.046Z,0.75
2022-09-09T02:31:25.188Z,0.50
2022-09-09T02:32:29.492Z,0.50
2022-09-09T02:33:33.635Z,0.00
2022-09-09T02:34:38.220Z,0.25
2022-09-09T02:35:42.166Z,0.50
2022-09-09T02:36:46.008Z,0.50
2022-09-09T02:37:50.109Z,0.00
2022-09-09T02:38:54.169Z,0.00
2022-09-09T02:39:58.303Z,0.00
2022-09-09T02:41:02.218Z,0.00
2022-09-09T02:42:06.426Z,0.00
2022-09-09T02:43:10.330Z,0.00
2022-09-09T02:44:14.227Z,0.00
2022-09-09T02:45:18.333Z,0.00
2022-09-09T02:46:22.322Z,1.00
2022-09-09T02:47:26.088Z,0.50
2022-09-09T02:48:29.972Z,0.00
2022-09-09T02:49:34.039Z,0.00
2022-09-09T02:50:38.127Z,0.50
2022-09-09T02:51:42.028Z,0.00
2022-09-09T02:52:45.927Z,0.00
2022-09-09T02:53:49.926Z,0.25
2022-09-09T02:54:53.928Z,0.00
2022-09-09T02:55:57.825Z,0.50
2022-09-09T02:57:01.828Z,0.00
2022-09-09T02:58:05.837Z,0.00
2022-09-09T02:59:09.728Z,0.00
2022-09-09T03:00:13.741Z,0.00
2022-09-09T03:01:17.652Z,0.00
2022-09-09T03:02:21.594Z,0.00
2022-09-09T03:03:25.528Z,0.00
2022-09-09T03:04:29.528Z,0.00
2022-09-09T03:05:33.422Z,0.00
2022-09-09T03:06:37.306Z,0.00
2022-09-09T03:07:41.099Z,0.50
2022-09-09T03:08:49.541Z,1.00
2022-09-09T03:09:50.147Z,0.00
2022-09-09T03:10:54.144Z,0.00
2022-09-09T03:11:58.347Z,0.00
2022-09-09T03:13:02.248Z,0.50
2022-09-09T03:14:06.248Z,0.50
2022-09-09T03:15:10.147Z,0.00
2022-09-09T03:16:14.032Z,0.50
2022-09-09T03:17:17.946Z,1.75
2022-09-09T03:18:21.947Z,2.00
2022-09-09T03:19:25.809Z,1.00
2022-09-09T03:20:29.751Z,0.50
2022-09-09T03:21:33.805Z,1.00
2022-09-09T03:22:37.848Z,1.50
2022-09-09T03:23:41.849Z,2.00
2022-09-09T03:24:45.960Z,2.00
2022-09-09T03:25:50.055Z,2.00
2022-09-09T03:26:54.055Z,2.00
2022-09-09T03:27:58.263Z,1.50
2022-09-09T03:29:02.370Z,1.00
2022-09-09T03:30:06.531Z,1.50
2022-09-09T03:31:10.474Z,1.75
2022-09-09T03:32:14.410Z,1.50
2022-09-09T03:33:18.950Z,1.00
2022-09-09T03:34:23.188Z,0.75
2022-09-09T03:35:27.402Z,1.75
2022-09-09T03:36:31.599Z,2.50
2022-09-09T03:37:35.706Z,3.00
2022-09-09T03:38:39.808Z,1.75
2022-09-09T03:39:43.653Z,1.00
2022-09-09T03:40:47.811Z,0.25
2022-09-09T03:41:51.806Z,1.50
2022-09-09T03:42:55.696Z,1.50
2022-09-09T03:43:59.815Z,1.00
2022-09-09T03:45:04.183Z,0.25
2022-09-09T03:46:08.390Z,1.00
2022-09-09T03:47:12.427Z,1.00
2022-09-09T03:48:16.632Z,2.00
2022-09-09T03:49:20.741Z,1.75
2022-09-09T03:50:24.904Z,1.00
2022-09-09T03:51:28.943Z,2.00
2022-09-09T03:52:33.154Z,1.75
2022-09-09T03:53:37.362Z,2.00
2022-09-09T03:54:41.380Z,1.50
2022-09-09T03:55:45.120Z,2.00
2022-09-09T03:56:48.950Z,1.75
2022-09-09T03:57:52.866Z,1.50
2022-09-09T03:58:56.749Z,2.00
2022-09-09T04:00:01.023Z,1.50
2022-09-09T04:01:05.075Z,0.25
2022-09-09T04:02:09.106Z,1.00
2022-09-09T04:03:13.175Z,0.50
2022-09-09T04:04:17.258Z,2.00
2022-09-09T04:05:21.223Z,2.00
2022-09-09T04:06:25.267Z,2.50
2022-09-09T04:07:29.047Z,2.00
2022-09-09T04:08:33.194Z,1.00
2022-09-09T04:09:37.165Z,0.50
2022-09-09T04:10:41.371Z,0.00
2022-09-09T04:11:45.167Z,1.00
2022-09-09T04:12:49.618Z,1.00
2022-09-09T04:13:53.785Z,0.75
2022-09-09T04:14:57.892Z,0.50
2022-09-09T04:16:01.918Z,0.50
2022-09-09T04:17:06.006Z,0.50
2022-09-09T04:18:10.118Z,1.00
2022-09-09T04:19:14.308Z,1.00
2022-09-09T04:20:18.400Z,0.00
2022-09-09T04:21:22.513Z,1.00
2022-09-09T04:22:26.544Z,1.00
2022-09-09T04:23:30.617Z,0.50
2022-09-09T04:24:34.821Z,0.25
2022-09-09T04:25:38.615Z,1.00
2022-09-09T04:26:42.823Z,0.50
2022-09-09T04:27:46.825Z,1.00
2022-09-09T04:28:50.824Z,0.75
2022-09-09T04:29:54.824Z,0.50
2022-09-09T04:30:59.956Z,0.50
2022-09-09T04:32:03.992Z,0.00
2022-09-09T04:33:08.090Z,0.00
2022-09-09T04:34:12.069Z,0.00
2022-09-09T04:35:16.162Z,0.50
2022-09-09T04:36:20.367Z,1.00
2022-09-09T04:37:24.479Z,1.00
2022-09-09T04:38:28.479Z,0.00
2022-09-09T04:39:32.526Z,0.00
2022-09-09T04:40:36.497Z,0.00
2022-09-09T04:41:40.343Z,0.00
2022-09-09T04:42:44.171Z,0.75
2022-09-09T04:43:48.066Z,1.00
2022-09-09T04:44:51.824Z,0.25
2022-09-09T04:45:55.797Z,0.00
2022-09-09T04:46:59.640Z,0.00
2022-09-09T04:48:03.661Z,0.00
2022-09-09T04:49:09.210Z,0.00
2022-09-09T04:50:12.493Z,0.00
2022-09-09T04:51:16.382Z,0.00
2022-09-09T04:52:20.385Z,0.50
2022-09-09T04:53:24.483Z,1.00
2022-09-09T04:54:28.391Z,0.50
2022-09-09T04:55:32.256Z,0.50
2022-09-09T04:56:36.080Z,1.00
2022-09-09T04:57:40.081Z,0.50
2022-09-09T04:58:44.145Z,1.00
2022-09-09T04:59:47.843Z,1.00
2022-09-09T05:00:51.806Z,0.50
2022-09-09T05:01:55.814Z,0.00
2022-09-09T05:02:59.807Z,0.50
2022-09-09T05:04:03.590Z,0.00
2022-09-09T05:05:07.573Z,0.75
2022-09-09T05:06:11.506Z,0.50
2022-09-09T05:07:15.438Z,1.00
2022-09-09T05:08:19.375Z,1.00
2022-09-09T05:09:23.180Z,0.00
2022-09-09T05:10:27.173Z,0.75
2022-09-09T05:11:30.941Z,0.50
2022-09-09T05:12:34.866Z,1.00
2022-09-09T05:13:41.331Z,1.00
2022-09-09T05:14:43.802Z,1.00
2022-09-09T05:15:47.631Z,0.00
2022-09-09T05:16:51.309Z,0.75
2022-09-09T05:17:55.282Z,0.00
2022-09-09T05:18:59.193Z,0.00
2022-09-09T05:20:05.602Z,0.00
2022-09-09T05:21:08.090Z,0.00
2022-09-09T05:22:15.282Z,0.00
2022-09-09T05:23:19.279Z,0.25
2022-09-09T05:24:23.393Z,0.50
2022-09-09T05:25:27.702Z,0.00
2022-09-09T05:26:31.959Z,0.00
2022-09-09T05:27:36.104Z,0.50
2022-09-09T05:28:40.305Z,1.00
2022-09-09T05:29:44.410Z,0.00
2022-09-09T05:30:48.824Z,0.50
2022-09-09T05:31:52.773Z,0.00
2022-09-09T05:32:56.726Z,0.00
2022-09-09T05:34:01.030Z,0.25
2022-09-09T05:35:05.328Z,1.00
2022-09-09T05:36:09.440Z,0.00
2022-09-09T05:37:13.615Z,0.25
2022-09-09T05:38:17.648Z,0.50
2022-09-09T05:39:21.761Z,0.50
2022-09-09T05:40:25.958Z,0.00
2022-09-09T05:41:30.161Z,0.00
2022-09-09T05:42:34.266Z,0.00
2022-09-09T05:43:38.327Z,0.00
2022-09-09T05:44:42.372Z,0.50
2022-09-09T05:45:46.339Z,0.50
2022-09-09T05:46:50.239Z,0.50
2022-09-09T05:47:54.103Z,0.00
2022-09-09T05:48:58.076Z,0.50
2022-09-09T05:50:02.273Z,0.50
2022-09-09T05:51:06.990Z,0.00
2022-09-09T05:52:11.305Z,1.00
2022-09-09T05:53:15.506Z,2.25
2022-09-09T05:54:19.716Z,2.50
2022-09-09T05:55:23.827Z,3.00
2022-09-09T05:56:28.125Z,2.00
2022-09-09T05:57:32.226Z,3.00
2022-09-09T05:58:36.488Z,3.00
2022-09-09T05:59:40.332Z,2.25
2022-09-09T06:00:44.541Z,3.00
2022-09-09T06:01:48.546Z,4.25
2022-09-09T06:02:52.712Z,4.25
2022-09-09T06:03:56.642Z,3.00
2022-09-09T06:05:00.792Z,2.50
2022-09-09T06:06:04.511Z,3.00
2022-09-09T06:07:08.338Z,3.00
2022-09-09T06:08:12.323Z,3.25
2022-09-09T06:09:16.159Z,3.50
2022-09-09T06:10:20.033Z,3.00
2022-09-09T06:11:23.935Z,2.75
2022-09-09T06:12:27.740Z,3.50
2022-09-09T06:13:31.554Z,4.00
2022-09-09T06:14:35.700Z,3.25
2022-09-09T06:15:39.323Z,4.00
2022-09-09T06:16:43.595Z,5.00
2022-09-09T06:17:47.327Z,3.75
2022-09-09T06:18:51.223Z,5.00
2022-09-09T06:19:55.228Z,4.50
2022-09-09T06:20:59.328Z,3.75
2022-09-09T06:22:03.538Z,4.50
2022-09-09T06:23:07.843Z,4.00
2022-09-09T06:24:11.957Z,4.75
2022-09-09T06:25:16.151Z,5.50
2022-09-09T06:26:20.468Z,4.50
2022-09-09T06:27:26.357Z,5.50
2022-09-09T06:28:30.327Z,5.50
2022-09-09T06:29:34.312Z,4.25
2022-09-09T06:30:38.359Z,4.50
2022-09-09T06:31:42.139Z,4.00
2022-09-09T06:32:46.309Z,4.50
2022-09-09T06:33:50.620Z,4.00
2022-09-09T06:34:54.519Z,3.50
2022-09-09T06:35:58.195Z,4.00
2022-09-09T06:37:02.108Z,4.75
2022-09-09T06:38:05.912Z,5.00
2022-09-09T06:39:14.206Z,4.50
2022-09-09T06:40:14.849Z,5.25
2022-09-09T06:41:19.953Z,4.50
2022-09-09T06:42:24.269Z,5.00
2022-09-09T06:43:28.055Z,4.50
2022-09-09T06:44:35.104Z,3.50
2022-09-09T06:45:36.997Z,3.75
2022-09-09T06:46:40.987Z,4.25
2022-09-09T06:47:44.940Z,3.50
2022-09-09T06:48:48.985Z,3.25
2022-09-09T06:49:52.987Z,4.25
2022-09-09T06:50:56.885Z,4.25
2022-09-09T06:52:00.759Z,5.00
2022-09-09T06:53:04.788Z,5.50
2022-09-09T06:54:08.688Z,4.50
2022-09-09T06:55:12.579Z,4.00
2022-09-09T06:56:17.982Z,4.00
2022-09-09T06:57:36.489Z,3.75
2022-09-09T06:58:26.409Z,4.50
2022-09-09T06:59:30.122Z,3.75
2022-09-09T07:00:34.045Z,4.25
2022-09-09T07:01:38.075Z,4.50
2022-09-09T07:02:42.019Z,4.75
2022-09-09T07:03:46.022Z,4.00
2022-09-09T07:04:50.128Z,3.25
2022-09-09T07:05:54.132Z,4.50
2022-09-09T07:06:58.005Z,5.00
2022-09-09T07:08:01.928Z,4.50
2022-09-09T07:09:05.824Z,3.50
2022-09-09T07:10:09.933Z,3.50
2022-09-09T07:11:13.826Z,4.00
2022-09-09T07:12:17.647Z,4.75
2022-09-09T07:13:24.593Z,5.00
2022-09-09T07:14:28.710Z,5.50
2022-09-09T07:15:33.121Z,4.50
2022-09-09T07:16:37.628Z,5.00
2022-09-09T07:17:41.411Z,4.50
2022-09-09T07:18:45.757Z,5.00
2022-09-09T07:19:49.635Z,5.00
2022-09-09T07:20:53.828Z,5.00
2022-09-09T07:21:57.727Z,5.00
2022-09-09T07:23:01.938Z,5.75
2022-09-09T07:24:06.139Z,5.50
2022-09-09T07:25:10.122Z,5.50
2022-09-09T07:26:14.242Z,7.00
2022-09-09T07:27:18.447Z,5.50
2022-09-09T07:28:22.574Z,4.25
2022-09-09T07:29:26.518Z,5.50
2022-09-09T07:30:30.969Z,6.25
2022-09-09T07:31:35.053Z,7.00
2022-09-09T07:32:39.168Z,6.50
2022-09-09T07:33:42.966Z,5.50
2022-09-09T07:34:47.276Z,5.75
2022-09-09T07:35:51.073Z,7.00
2022-09-09T07:36:54.869Z,5.50
2022-09-09T07:37:58.766Z,4.50
2022-09-09T07:39:02.878Z,5.75
2022-09-09T07:40:07.230Z,5.50
2022-09-09T07:41:11.297Z,6.00
2022-09-09T07:42:15.692Z,5.50
2022-09-09T07:43:19.798Z,6.00
2022-09-09T07:44:24.002Z,5.50
2022-09-09T07:45:28.206Z,7.50
2022-09-09T07:46:32.464Z,6.50
2022-09-09T07:47:36.703Z,5.75
2022-09-09T07:48:40.826Z,5.25
2022-09-09T07:49:44.929Z,5.25
2022-09-09T07:50:48.619Z,6.25
2022-09-09T07:51:52.792Z,5.75
2022-09-09T07:52:57.609Z,5.50
2022-09-09T07:54:01.440Z,4.75
2022-09-09T07:55:05.272Z,5.00
2022-09-09T07:56:10.231Z,6.00
2022-09-09T07:57:14.118Z,6.00
2022-09-09T07:58:17.863Z,6.25
2022-09-09T07:59:21.763Z,6.00
2022-09-09T08:00:27.912Z,5.25
2022-09-09T08:01:31.927Z,5.00
2022-09-09T08:02:35.941Z,5.75
2022-09-09T08:03:39.913Z,6.00
2022-09-09T08:04:47.048Z,5.00
2022-09-09T08:08:17.008Z,6.00
2022-09-09T08:09:22.311Z,5.50
2022-09-09T08:10:26.366Z,5.50
2022-09-09T08:11:32.406Z,4.75
2022-09-09T08:13:01.342Z,4.50
2022-09-09T08:13:50.903Z,5.50
2022-09-09T08:14:55.670Z,5.50
2022-09-09T08:15:57.939Z,6.00
2022-09-09T08:17:02.051Z,5.75
2022-09-09T08:18:06.126Z,6.00
2022-09-09T08:19:10.231Z,6.00
2022-09-09T08:20:14.332Z,5.50
2022-09-09T08:21:18.537Z,6.00
2022-09-09T08:22:22.336Z,6.00
2022-09-09T08:23:26.235Z,5.00
2022-09-09T08:24:30.027Z,5.75
2022-09-09T08:25:33.841Z,4.50
2022-09-09T08:26:37.519Z,4.00
2022-09-09T08:27:41.314Z,3.50
2022-09-09T08:28:45.237Z,3.25
2022-09-09T08:29:49.212Z,3.75
2022-09-09T08:30:53.059Z,3.50
2022-09-09T08:31:57.221Z,3.50
2022-09-09T08:33:01.317Z,4.00
2022-09-09T08:34:05.323Z,4.00
2022-09-09T08:35:09.428Z,3.75
2022-09-09T08:36:26.137Z,4.00
2022-09-09T08:37:29.947Z,3.25
2022-09-09T08:38:34.133Z,3.00
2022-09-09T08:39:38.408Z,3.25
2022-09-09T08:40:42.743Z,3.50
2022-09-09T08:41:46.744Z,3.25
2022-09-09T08:42:50.947Z,2.00
2022-09-09T08:43:54.847Z,1.75
2022-09-09T08:44:58.550Z,2.50
2022-09-09T08:46:03.814Z,2.50
2022-09-09T08:47:08.107Z,2.50
2022-09-09T08:48:14.346Z,2.00
2022-09-09T08:49:18.456Z,2.50
2022-09-09T08:50:22.757Z,1.50
2022-09-09T08:51:27.055Z,2.00
2022-09-09T08:52:31.159Z,1.50
2022-09-09T08:53:35.362Z,2.00
2022-09-09T08:54:51.533Z,2.00
2022-09-09T08:55:44.595Z,1.50
2022-09-09T08:56:52.259Z,1.75
2022-09-09T08:57:55.667Z,2.00
2022-09-09T08:58:59.551Z,1.25
2022-09-09T09:00:03.670Z,1.50
2022-09-09T09:01:11.398Z,1.50
2022-09-09T09:02:17.492Z,2.00
2022-09-09T09:03:21.775Z,1.50
2022-09-09T09:04:25.970Z,1.50
2022-09-09T09:05:30.226Z,1.50
2022-09-09T09:06:34.434Z,1.50
2022-09-09T09:07:39.930Z,1.25
2022-09-09T09:08:43.662Z,1.50
2022-09-09T09:09:47.520Z,1.00
2022-09-09T09:10:51.180Z,0.50
2022-09-09T09:11:54.960Z,2.00
2022-09-09T09:12:58.643Z,1.00
2022-09-09T09:14:02.540Z,0.50
2022-09-09T09:15:07.837Z,1.50
2022-09-09T09:16:11.653Z,1.50
2022-09-09T09:17:15.673Z,1.00
2022-09-09T09:18:19.673Z,1.00
2022-09-09T09:19:23.580Z,1.00
2022-09-09T09:20:29.930Z,0.00
2022-09-09T09:21:33.624Z,0.75
2022-09-09T09:22:37.416Z,2.00
2022-09-09T09:23:41.316Z,2.00
2022-09-09T09:24:45.217Z,2.00
2022-09-09T09:25:49.009Z,3.00
2022-09-09T09:26:52.814Z,3.50
2022-09-09T09:27:56.713Z,2.00
2022-09-09T09:29:00.609Z,2.00
2022-09-09T09:30:23.855Z,2.00
2022-09-09T09:31:09.558Z,3.00
2022-09-09T09:32:13.252Z,3.50
2022-09-09T09:33:17.122Z,4.25
2022-09-09T09:34:21.022Z,2.50
2022-09-09T09:35:25.022Z,1.50
2022-09-09T09:36:29.022Z,2.00
2022-09-09T09:37:33.026Z,2.50
2022-09-09T09:40:46.971Z,1.75
2022-09-09T09:41:50.767Z,2.00
2022-09-09T09:42:54.666Z,2.00
2022-09-09T09:43:58.566Z,2.50
2022-09-09T09:45:02.366Z,2.75
2022-09-09T09:46:17.486Z,2.00
2022-09-09T09:47:11.197Z,2.75
2022-09-09T09:48:15.191Z,2.25
2022-09-09T09:49:18.979Z,2.00
2022-09-09T09:50:23.386Z,2.50
2022-09-09T09:51:27.705Z,2.00
2022-09-09T09:52:31.808Z,2.75
2022-09-09T09:53:36.090Z,2.50
2022-09-09T09:54:40.317Z,1.75
2022-09-09T09:55:44.113Z,2.00
2022-09-09T09:56:48.214Z,3.00
2022-09-09T09:57:51.971Z,2.00
2022-09-09T09:58:55.806Z,1.50
2022-09-09T09:59:59.500Z,1.50
2022-09-09T10:01:03.328Z,2.25
2022-09-09T10:02:07.420Z,1.50
2022-09-09T10:03:11.197Z,1.50
2022-09-09T10:04:15.229Z,1.00
2022-09-09T10:05:23.226Z,0.50
2022-09-09T10:06:24.446Z,1.50
2022-09-09T10:07:28.241Z,2.50
2022-09-09T10:08:32.399Z,2.00
2022-09-09T10:09:36.093Z,1.75
2022-09-09T10:10:40.221Z,2.00
2022-09-09T10:11:44.026Z,2.00
2022-09-09T10:12:48.235Z,2.00
2022-09-09T10:13:52.024Z,0.50
2022-09-09T10:14:55.928Z,1.75
2022-09-09T10:16:02.114Z,2.00
2022-09-09T10:17:04.987Z,1.75
2022-09-09T10:18:08.961Z,2.75
2022-09-09T10:19:12.843Z,2.50
2022-09-09T10:20:16.748Z,2.00
2022-09-09T10:21:20.758Z,1.50
2022-09-09T10:22:24.542Z,1.50
2022-09-09T10:23:28.451Z,2.50
2022-09-09T10:24:32.451Z,3.00
2022-09-09T10:25:36.355Z,2.75
2022-09-09T10:26:40.250Z,3.00
2022-09-09T10:27:44.047Z,2.25
2022-09-09T10:28:47.805Z,2.75
2022-09-09T10:29:51.490Z,1.50
2022-09-09T10:30:55.468Z,2.25
2022-09-09T10:31:59.193Z,3.00
2022-09-09T10:33:02.947Z,3.00
2022-09-09T10:34:06.919Z,3.00
2022-09-09T10:35:10.827Z,2.00
2022-09-09T10:36:14.689Z,1.50
2022-09-09T10:37:18.490Z,2.25
2022-09-09T10:38:22.411Z,2.25
2022-09-09T10:39:26.525Z,3.00
2022-09-09T10:40:30.625Z,2.50
2022-09-09T10:41:34.624Z,2.50
2022-09-09T10:42:38.824Z,1.50
2022-09-09T10:43:42.724Z,1.50
2022-09-09T10:44:46.724Z,2.00
2022-09-09T10:45:50.467Z,2.00
2022-09-09T10:46:54.520Z,2.00
2022-09-09T10:47:58.320Z,2.00
2022-09-09T10:49:02.227Z,2.50
2022-09-09T10:50:06.116Z,2.50
2022-09-09T10:51:09.829Z,2.00
2022-09-09T10:52:13.818Z,2.00
2022-09-09T10:53:18.021Z,2.00
2022-09-09T10:54:22.222Z,1.75
2022-09-09T10:55:29.756Z,1.50
2022-09-09T10:56:31.454Z,1.25
2022-09-09T10:57:35.865Z,1.25
2022-09-09T10:58:39.966Z,1.00
2022-09-09T10:59:43.662Z,1.50
2022-09-09T11:00:47.765Z,2.00
2022-09-09T11:01:51.587Z,1.50
2022-09-09T11:02:55.362Z,1.50
2022-09-09T11:03:59.253Z,0.75
2022-09-09T11:05:03.051Z,1.50
2022-09-09T11:06:07.635Z,0.50
2022-09-09T11:07:12.214Z,1.00
2022-09-09T11:08:16.435Z,1.75
2022-09-09T11:09:25.710Z,0.50
2022-09-09T11:10:31.441Z,0.50
2022-09-09T11:11:35.249Z,0.00
2022-09-09T11:12:39.048Z,1.50
2022-09-09T11:13:42.882Z,2.00
2022-09-09T11:14:46.740Z,1.50
2022-09-09T11:15:50.539Z,0.50
2022-09-09T11:16:54.400Z,0.50
2022-09-09T11:17:58.239Z,1.00
2022-09-09T11:19:02.228Z,0.50
2022-09-09T11:20:06.029Z,0.50
2022-09-09T11:21:09.822Z,1.00
2022-09-09T11:22:13.619Z,0.50
2022-09-09T11:23:17.545Z,1.00
2022-09-09T11:24:21.367Z,0.50
2022-09-09T11:25:25.163Z,0.50
2022-09-09T11:26:29.107Z,0.50
2022-09-09T11:27:33.115Z,1.00
2022-09-09T11:28:36.941Z,0.50
2022-09-09T11:29:40.809Z,0.75
2022-09-09T11:30:56.109Z,0.75
2022-09-09T11:31:49.716Z,0.50
2022-09-09T11:32:53.739Z,0.50
2022-09-09T11:33:57.530Z,1.00
2022-09-09T11:35:01.226Z,0.75
2022-09-09T11:36:07.424Z,1.00
2022-09-09T11:37:10.348Z,1.50
2022-09-09T11:38:14.452Z,0.50
2022-09-09T11:39:18.599Z,1.00
2022-09-09T11:40:22.660Z,0.25
2022-09-09T11:41:27.083Z,0.25
2022-09-09T11:42:31.082Z,1.00
2022-09-09T11:43:35.179Z,1.00
2022-09-09T11:44:39.491Z,1.00
2022-09-09T11:45:43.529Z,0.50
2022-09-09T11:46:47.587Z,0.00
2022-09-09T11:47:51.348Z,0.00
2022-09-09T11:48:55.298Z,1.00
2022-09-09T11:49:59.290Z,0.50
2022-09-09T11:51:03.201Z,1.50
2022-09-09T11:52:07.388Z,1.25
2022-09-09T11:53:11.515Z,0.00
2022-09-09T11:54:15.510Z,1.00
2022-09-09T11:55:20.491Z,0.75
2022-09-09T11:56:24.519Z,1.00
2022-09-09T11:57:28.625Z,1.00
2022-09-09T11:58:32.730Z,0.50
2022-09-09T11:59:36.830Z,0.50
2022-09-09T12:00:40.895Z,0.50
2022-09-09T12:01:44.494Z,0.50
2022-09-09T12:02:48.735Z,0.50
2022-09-09T12:03:52.646Z,0.00
2022-09-09T12:04:56.906Z,0.50
2022-09-09T12:06:00.843Z,0.75
2022-09-09T12:07:04.744Z,0.50
2022-09-09T12:08:08.751Z,0.50
2022-09-09T12:09:12.945Z,1.00
2022-09-09T12:10:17.057Z,1.00
2022-09-09T12:11:21.118Z,0.50
2022-09-09T12:12:25.149Z,0.50
2022-09-09T12:13:29.053Z,0.50
2022-09-09T12:14:33.151Z,1.00
2022-09-09T12:15:37.664Z,0.50
2022-09-09T12:16:41.797Z,0.25
2022-09-09T12:17:45.559Z,1.00
2022-09-09T12:18:49.503Z,0.50
2022-09-09T12:19:53.369Z,0.00
2022-09-09T12:20:57.366Z,0.50
2022-09-09T12:22:01.266Z,0.50
2022-09-09T12:23:05.267Z,0.75
2022-09-09T12:24:09.055Z,0.50
2022-09-09T12:25:12.959Z,0.00
2022-09-09T12:26:16.864Z,0.00
2022-09-09T12:27:20.550Z,0.00
2022-09-09T12:28:24.470Z,0.00
2022-09-09T12:29:28.241Z,0.00
2022-09-09T12:30:32.288Z,0.00
2022-09-09T12:31:36.448Z,0.00
2022-09-09T12:32:40.762Z,0.50
2022-09-09T12:33:44.662Z,0.00
2022-09-09T12:34:48.692Z,0.00
2022-09-09T12:35:52.465Z,0.00
2022-09-09T12:36:56.250Z,0.00
2022-09-09T12:38:00.148Z,0.00
2022-09-09T12:39:04.045Z,0.00
2022-09-09T12:40:08.536Z,0.00
2022-09-09T12:41:12.671Z,0.00
2022-09-09T12:42:16.798Z,0.00
2022-09-09T12:43:20.870Z,0.00
2022-09-09T12:44:24.981Z,0.50
2022-09-09T12:45:28.882Z,0.00
2022-09-09T12:46:32.874Z,0.00
2022-09-09T12:47:36.583Z,0.00
2022-09-09T12:48:40.226Z,0.00
2022-09-09T12:49:43.880Z,0.00
2022-09-09T12:50:47.766Z,0.00
2022-09-09T12:51:51.551Z,0.00
2022-09-09T12:52:55.350Z,0.25
2022-09-09T12:53:59.035Z,0.00
2022-09-09T12:55:02.810Z,0.00
2022-09-09T12:56:06.496Z,0.00
2022-09-09T12:57:10.128Z,0.00
2022-09-09T12:58:13.895Z,0.00
2022-09-09T12:59:17.811Z,0.00
2022-09-09T13:00:21.819Z,0.00
2022-09-09T13:01:25.840Z,0.00
2022-09-09T13:02:29.763Z,0.00
2022-09-09T13:03:33.625Z,0.00
2022-09-09T13:04:37.412Z,0.00
2022-09-09T13:05:41.307Z,0.00
2022-09-09T13:06:45.105Z,0.00
2022-09-09T13:07:48.907Z,0.00
2022-09-09T13:08:52.693Z,0.00
2022-09-09T13:09:56.501Z,0.00
2022-09-09T13:11:02.830Z,0.00
2022-09-09T13:12:05.220Z,0.00
2022-09-09T13:13:09.215Z,0.00
2022-09-09T13:14:13.239Z,0.00
2022-09-09T13:15:17.010Z,0.00
2022-09-09T13:16:20.883Z,0.00
2022-09-09T13:17:25.217Z,0.00
2022-09-09T13:18:28.969Z,0.00
2022-09-09T13:19:33.023Z,0.00
2022-09-09T13:20:37.018Z,0.00
2022-09-09T13:21:41.020Z,0.00
2022-09-09T13:22:44.774Z,0.00
2022-09-09T13:23:48.407Z,0.00
2022-09-09T13:24:52.301Z,0.00
2022-09-09T13:25:56.100Z,0.00
2022-09-09T13:26:59.999Z,1.50
2022-09-09T13:28:03.804Z,2.00
2022-09-09T13:29:07.599Z,0.00
2022-09-09T13:30:11.332Z,0.00
2022-09-09T13:31:15.239Z,0.00
2022-09-09T13:32:19.108Z,0.00
2022-09-09T13:33:22.885Z,0.00
2022-09-09T13:34:26.571Z,0.00
2022-09-09T13:35:30.370Z,0.00
2022-09-09T13:36:34.378Z,0.00
2022-09-09T13:37:38.338Z,0.00
2022-09-09T13:38:42.384Z,0.00
2022-09-09T13:39:46.393Z,0.00
2022-09-09T13:40:50.382Z,0.00
2022-09-09T13:41:54.145Z,0.00
2022-09-09T13:42:57.842Z,0.00
2022-09-09T13:44:01.658Z,0.00
2022-09-09T13:45:05.471Z,0.00
2022-09-09T13:46:09.688Z,0.00
2022-09-09T13:47:13.661Z,1.00
2022-09-09T13:48:17.822Z,0.00
2022-09-09T13:49:21.877Z,0.00
2022-09-09T13:50:25.967Z,0.00
2022-09-09T13:51:29.971Z,0.00
2022-09-09T13:52:34.186Z,0.00
2022-09-09T13:53:38.507Z,0.00
2022-09-09T13:54:43.043Z,0.00
2022-09-09T13:55:51.701Z,0.00
2022-09-09T13:56:52.204Z,0.00
2022-09-09T13:57:56.126Z,0.00
2022-09-09T13:58:59.931Z,0.00
2022-09-09T14:00:05.430Z,0.00
2022-09-09T14:01:08.794Z,0.00
2022-09-09T14:02:12.827Z,0.00
2022-09-09T14:03:16.755Z,0.00
2022-09-09T14:04:20.742Z,0.00
2022-09-09T14:05:24.742Z,0.00
2022-09-09T14:06:28.751Z,0.00
2022-09-09T14:07:32.830Z,0.00
2022-09-09T14:08:36.947Z,0.00
2022-09-09T14:09:40.856Z,0.00
2022-09-09T14:10:45.061Z,0.00
2022-09-09T14:11:48.855Z,0.00
2022-09-09T14:12:52.959Z,0.00
2022-09-09T14:13:56.764Z,0.00
2022-09-09T14:15:00.455Z,0.00
2022-09-09T14:16:04.318Z,0.00
2022-09-09T14:17:08.367Z,0.00
2022-09-09T14:18:12.454Z,0.00